sensor_id;sensor_type;location;lat;lon;timestamp;temperature;humidity
68746;SHT31;66104;45.456;11.064;2023-04-03T00:00:34;13.49;53.76
68746;SHT31;66104;45.456;11.064;2023-04-03T00:03:09;13.45;52.98
68746;SHT31;66104;45.456;11.064;2023-04-03T00:05:46;13.39;53.08
68746;SHT31;66104;45.456;11.064;2023-04-03T00:08:24;13.30;52.86
68746;SHT31;66104;45.456;11.064;2023-04-03T00:11:02;13.21;52.85
68746;SHT31;66104;45.456;11.064;2023-04-03T00:13:38;13.12;53.07
68746;SHT31;66104;45.456;11.064;2023-04-03T00:16:14;13.03;52.94
68746;SHT31;66104;45.456;11.064;2023-04-03T00:18:51;12.99;52.96
68746;SHT31;66104;45.456;11.064;2023-04-03T00:21:27;12.96;52.47
68746;SHT31;66104;45.456;11.064;2023-04-03T00:24:04;12.91;52.45
68746;SHT31;66104;45.456;11.064;2023-04-03T00:26:41;12.88;52.65
68746;SHT31;66104;45.456;11.064;2023-04-03T00:29:17;12.85;52.49
68746;SHT31;66104;45.456;11.064;2023-04-03T00:31:54;12.83;52.43
68746;SHT31;66104;45.456;11.064;2023-04-03T00:34:31;12.80;52.66
68746;SHT31;66104;45.456;11.064;2023-04-03T00:37:07;12.78;52.38
68746;SHT31;66104;45.456;11.064;2023-04-03T00:39:44;12.74;52.37
68746;SHT31;66104;45.456;11.064;2023-04-03T00:42:20;12.73;52.23
68746;SHT31;66104;45.456;11.064;2023-04-03T00:48:07;12.65;52.15
68746;SHT31;66104;45.456;11.064;2023-04-03T00:50:47;12.60;52.09
68746;SHT31;66104;45.456;11.064;2023-04-03T00:53:24;12.56;52.18
68746;SHT31;66104;45.456;11.064;2023-04-03T00:56:08;12.57;51.87
68746;SHT31;66104;45.456;11.064;2023-04-03T00:58:49;12.60;51.58
68746;SHT31;66104;45.456;11.064;2023-04-03T01:01:30;12.61;51.37
68746;SHT31;66104;45.456;11.064;2023-04-03T01:07:04;12.65;51.24
68746;SHT31;66104;45.456;11.064;2023-04-03T01:09:47;12.68;51.12
68746;SHT31;66104;45.456;11.064;2023-04-03T01:12:28;12.68;51.08
68746;SHT31;66104;45.456;11.064;2023-04-03T01:15:08;12.68;51.17
68746;SHT31;66104;45.456;11.064;2023-04-03T01:17:48;12.70;51.09
68746;SHT31;66104;45.456;11.064;2023-04-03T01:23:57;12.69;51.08
68746;SHT31;66104;45.456;11.064;2023-04-03T01:26:48;12.68;50.98
68746;SHT31;66104;45.456;11.064;2023-04-03T01:29:25;12.69;50.94
68746;SHT31;66104;45.456;11.064;2023-04-03T01:32:02;12.69;51.03
68746;SHT31;66104;45.456;11.064;2023-04-03T01:34:38;12.72;50.93
68746;SHT31;66104;45.456;11.064;2023-04-03T01:37:14;12.75;51.09
68746;SHT31;66104;45.456;11.064;2023-04-03T01:39:50;12.76;50.76
68746;SHT31;66104;45.456;11.064;2023-04-03T01:42:27;12.76;50.69
68746;SHT31;66104;45.456;11.064;2023-04-03T01:45:05;12.75;50.84
68746;SHT31;66104;45.456;11.064;2023-04-03T01:47:44;12.74;50.76
68746;SHT31;66104;45.456;11.064;2023-04-03T01:50:20;12.73;50.66
68746;SHT31;66104;45.456;11.064;2023-04-03T01:52:56;12.74;50.72
68746;SHT31;66104;45.456;11.064;2023-04-03T01:55:33;12.74;50.70
68746;SHT31;66104;45.456;11.064;2023-04-03T01:58:09;12.72;50.57
68746;SHT31;66104;45.456;11.064;2023-04-03T02:00:48;12.73;50.47
68746;SHT31;66104;45.456;11.064;2023-04-03T02:03:24;12.73;50.45
68746;SHT31;66104;45.456;11.064;2023-04-03T02:06:01;12.71;50.25
68746;SHT31;66104;45.456;11.064;2023-04-03T02:08:40;12.71;50.26
68746;SHT31;66104;45.456;11.064;2023-04-03T02:11:16;12.68;50.18
68746;SHT31;66104;45.456;11.064;2023-04-03T02:13:53;12.64;50.34
68746;SHT31;66104;45.456;11.064;2023-04-03T02:16:30;12.63;50.24
68746;SHT31;66104;45.456;11.064;2023-04-03T02:19:07;12.63;50.38
68746;SHT31;66104;45.456;11.064;2023-04-03T02:21:43;12.62;50.41
68746;SHT31;66104;45.456;11.064;2023-04-03T02:24:20;12.62;50.48
68746;SHT31;66104;45.456;11.064;2023-04-03T02:27:00;12.60;50.66
68746;SHT31;66104;45.456;11.064;2023-04-03T02:29:36;12.59;50.80
68746;SHT31;66104;45.456;11.064;2023-04-03T02:32:12;12.57;50.97
68746;SHT31;66104;45.456;11.064;2023-04-03T02:34:49;12.54;51.16
68746;SHT31;66104;45.456;11.064;2023-04-03T02:37:25;12.53;51.26
68746;SHT31;66104;45.456;11.064;2023-04-03T02:40:01;12.52;51.46
68746;SHT31;66104;45.456;11.064;2023-04-03T02:42:41;12.50;51.75
68746;SHT31;66104;45.456;11.064;2023-04-03T02:45:19;12.48;51.90
68746;SHT31;66104;45.456;11.064;2023-04-03T02:47:55;12.44;52.01
68746;SHT31;66104;45.456;11.064;2023-04-03T02:50:31;12.43;51.99
68746;SHT31;66104;45.456;11.064;2023-04-03T02:53:08;12.43;52.08
68746;SHT31;66104;45.456;11.064;2023-04-03T02:55:45;12.44;52.00
68746;SHT31;66104;45.456;11.064;2023-04-03T02:58:22;12.46;51.97
68746;SHT31;66104;45.456;11.064;2023-04-03T03:00:59;12.49;52.08
68746;SHT31;66104;45.456;11.064;2023-04-03T03:03:35;12.51;52.26
68746;SHT31;66104;45.456;11.064;2023-04-03T03:06:12;12.51;52.32
68746;SHT31;66104;45.456;11.064;2023-04-03T03:08:50;12.50;52.38
68746;SHT31;66104;45.456;11.064;2023-04-03T03:11:26;12.47;52.60
68746;SHT31;66104;45.456;11.064;2023-04-03T03:14:03;12.46;52.74
68746;SHT31;66104;45.456;11.064;2023-04-03T03:16:40;12.47;52.93
68746;SHT31;66104;45.456;11.064;2023-04-03T03:19:16;12.48;53.10
68746;SHT31;66104;45.456;11.064;2023-04-03T03:21:53;12.49;53.13
68746;SHT31;66104;45.456;11.064;2023-04-03T03:24:30;12.50;53.06
68746;SHT31;66104;45.456;11.064;2023-04-03T03:27:06;12.51;53.22
68746;SHT31;66104;45.456;11.064;2023-04-03T03:29:43;12.49;53.27
68746;SHT31;66104;45.456;11.064;2023-04-03T03:32:19;12.51;53.42
68746;SHT31;66104;45.456;11.064;2023-04-03T03:34:56;12.53;53.50
68746;SHT31;66104;45.456;11.064;2023-04-03T03:37:32;12.55;53.53
68746;SHT31;66104;45.456;11.064;2023-04-03T03:40:11;12.57;53.80
68746;SHT31;66104;45.456;11.064;2023-04-03T03:42:50;12.60;54.03
68746;SHT31;66104;45.456;11.064;2023-04-03T03:45:26;12.63;54.63
68746;SHT31;66104;45.456;11.064;2023-04-03T03:48:03;12.71;54.75
68746;SHT31;66104;45.456;11.064;2023-04-03T03:50:40;12.77;54.96
68746;SHT31;66104;45.456;11.064;2023-04-03T03:53:17;12.85;55.03
68746;SHT31;66104;45.456;11.064;2023-04-03T03:55:56;12.94;55.10
68746;SHT31;66104;45.456;11.064;2023-04-03T03:58:34;13.02;55.05
68746;SHT31;66104;45.456;11.064;2023-04-03T04:01:10;13.09;54.80
68746;SHT31;66104;45.456;11.064;2023-04-03T04:03:48;13.16;54.62
68746;SHT31;66104;45.456;11.064;2023-04-03T04:06:27;13.21;54.54
68746;SHT31;66104;45.456;11.064;2023-04-03T04:09:05;13.25;54.42
68746;SHT31;66104;45.456;11.064;2023-04-03T04:11:42;13.28;54.30
68746;SHT31;66104;45.456;11.064;2023-04-03T04:14:19;13.30;54.14
68746;SHT31;66104;45.456;11.064;2023-04-03T04:16:56;13.31;53.99
68746;SHT31;66104;45.456;11.064;2023-04-03T04:19:32;13.33;53.81
68746;SHT31;66104;45.456;11.064;2023-04-03T04:22:08;13.34;53.76
68746;SHT31;66104;45.456;11.064;2023-04-03T04:24:45;13.36;53.74
68746;SHT31;66104;45.456;11.064;2023-04-03T04:27:21;13.37;53.79
68746;SHT31;66104;45.456;11.064;2023-04-03T04:29:57;13.38;53.57
68746;SHT31;66104;45.456;11.064;2023-04-03T04:32:35;13.39;53.58
68746;SHT31;66104;45.456;11.064;2023-04-03T04:35:12;13.40;53.60
68746;SHT31;66104;45.456;11.064;2023-04-03T04:37:49;13.41;53.69
68746;SHT31;66104;45.456;11.064;2023-04-03T04:40:25;13.40;53.68
68746;SHT31;66104;45.456;11.064;2023-04-03T04:43:01;13.40;53.61
68746;SHT31;66104;45.456;11.064;2023-04-03T04:45:38;13.40;53.57
68746;SHT31;66104;45.456;11.064;2023-04-03T04:48:15;13.41;53.68
68746;SHT31;66104;45.456;11.064;2023-04-03T04:50:51;13.40;53.62
68746;SHT31;66104;45.456;11.064;2023-04-03T04:53:28;13.39;53.72
68746;SHT31;66104;45.456;11.064;2023-04-03T04:56:06;13.37;53.82
68746;SHT31;66104;45.456;11.064;2023-04-03T04:58:43;13.35;53.79
68746;SHT31;66104;45.456;11.064;2023-04-03T05:01:20;13.34;54.00
68746;SHT31;66104;45.456;11.064;2023-04-03T05:04:09;13.31;54.11
68746;SHT31;66104;45.456;11.064;2023-04-03T05:06:48;13.30;54.06
68746;SHT31;66104;45.456;11.064;2023-04-03T05:09:27;13.29;54.06
68746;SHT31;66104;45.456;11.064;2023-04-03T05:12:04;13.26;54.15
68746;SHT31;66104;45.456;11.064;2023-04-03T05:14:46;13.26;54.13
68746;SHT31;66104;45.456;11.064;2023-04-03T05:17:23;13.25;54.30
68746;SHT31;66104;45.456;11.064;2023-04-03T05:19:59;13.24;54.33
68746;SHT31;66104;45.456;11.064;2023-04-03T05:22:37;13.23;54.48
68746;SHT31;66104;45.456;11.064;2023-04-03T05:25:14;13.36;54.39
68746;SHT31;66104;45.456;11.064;2023-04-03T05:27:54;14.54;52.34
68746;SHT31;66104;45.456;11.064;2023-04-03T05:30:31;15.22;50.37
68746;SHT31;66104;45.456;11.064;2023-04-03T05:33:08;15.09;50.50
68746;SHT31;66104;45.456;11.064;2023-04-03T05:35:49;14.79;50.90
68746;SHT31;66104;45.456;11.064;2023-04-03T05:38:27;14.54;51.53
68746;SHT31;66104;45.456;11.064;2023-04-03T05:41:06;14.39;51.83
68746;SHT31;66104;45.456;11.064;2023-04-03T05:43:44;14.26;52.21
68746;SHT31;66104;45.456;11.064;2023-04-03T05:46:21;14.14;52.61
68746;SHT31;66104;45.456;11.064;2023-04-03T05:48:58;14.06;52.97
68746;SHT31;66104;45.456;11.064;2023-04-03T05:51:36;14.02;53.11
68746;SHT31;66104;45.456;11.064;2023-04-03T05:54:20;14.02;53.33
68746;SHT31;66104;45.456;11.064;2023-04-03T05:57:08;14.03;53.73
68746;SHT31;66104;45.456;11.064;2023-04-03T05:59:44;14.05;53.66
68746;SHT31;66104;45.456;11.064;2023-04-03T06:02:21;14.08;53.82
68746;SHT31;66104;45.456;11.064;2023-04-03T06:04:58;14.18;53.74
68746;SHT31;66104;45.456;11.064;2023-04-03T06:07:37;14.29;53.56
68746;SHT31;66104;45.456;11.064;2023-04-03T06:10:13;14.43;53.64
68746;SHT31;66104;45.456;11.064;2023-04-03T06:12:50;14.55;53.65
68746;SHT31;66104;45.456;11.064;2023-04-03T06:15:26;14.65;53.66
68746;SHT31;66104;45.456;11.064;2023-04-03T06:18:03;14.71;53.72
68746;SHT31;66104;45.456;11.064;2023-04-03T06:20:39;14.77;53.71
68746;SHT31;66104;45.456;11.064;2023-04-03T06:23:16;14.82;53.87
68746;SHT31;66104;45.456;11.064;2023-04-03T06:25:53;14.82;53.90
68746;SHT31;66104;45.456;11.064;2023-04-03T06:28:29;14.72;54.64
68746;SHT31;66104;45.456;11.064;2023-04-03T06:31:05;14.60;55.15
68746;SHT31;66104;45.456;11.064;2023-04-03T06:33:42;14.50;55.59
68746;SHT31;66104;45.456;11.064;2023-04-03T06:36:19;14.44;56.00
68746;SHT31;66104;45.456;11.064;2023-04-03T06:38:56;14.43;56.18
68746;SHT31;66104;45.456;11.064;2023-04-03T06:41:33;14.42;56.37
68746;SHT31;66104;45.456;11.064;2023-04-03T06:44:09;14.48;56.57
68746;SHT31;66104;45.456;11.064;2023-04-03T06:46:46;14.53;56.49
68746;SHT31;66104;45.456;11.064;2023-04-03T06:49:23;14.56;56.52
68746;SHT31;66104;45.456;11.064;2023-04-03T06:51:59;14.54;56.70
68746;SHT31;66104;45.456;11.064;2023-04-03T06:54:37;14.54;57.00
68746;SHT31;66104;45.456;11.064;2023-04-03T06:57:14;14.52;57.27
68746;SHT31;66104;45.456;11.064;2023-04-03T06:59:51;14.49;57.22
68746;SHT31;66104;45.456;11.064;2023-04-03T07:02:27;14.51;57.51
68746;SHT31;66104;45.456;11.064;2023-04-03T07:05:05;14.56;57.46
68746;SHT31;66104;45.456;11.064;2023-04-03T07:07:43;14.60;57.28
68746;SHT31;66104;45.456;11.064;2023-04-03T07:10:20;14.63;56.94
68746;SHT31;66104;45.456;11.064;2023-04-03T07:12:58;14.63;56.77
68746;SHT31;66104;45.456;11.064;2023-04-03T07:15:34;14.58;56.99
68746;SHT31;66104;45.456;11.064;2023-04-03T07:18:11;14.49;56.63
68746;SHT31;66104;45.456;11.064;2023-04-03T07:20:48;14.44;56.72
68746;SHT31;66104;45.456;11.064;2023-04-03T07:23:26;14.35;57.10
68746;SHT31;66104;45.456;11.064;2023-04-03T07:26:03;14.35;57.22
68746;SHT31;66104;45.456;11.064;2023-04-03T07:28:40;14.31;57.04
68746;SHT31;66104;45.456;11.064;2023-04-03T07:31:16;14.30;57.23
68746;SHT31;66104;45.456;11.064;2023-04-03T07:33:53;14.29;56.97
68746;SHT31;66104;45.456;11.064;2023-04-03T07:36:30;14.30;57.07
68746;SHT31;66104;45.456;11.064;2023-04-03T07:39:06;14.32;57.53
68746;SHT31;66104;45.456;11.064;2023-04-03T07:41:41;14.35;56.84
68746;SHT31;66104;45.456;11.064;2023-04-03T07:44:18;14.28;57.07
68746;SHT31;66104;45.456;11.064;2023-04-03T07:46:55;14.25;57.35
68746;SHT31;66104;45.456;11.064;2023-04-03T07:49:32;14.29;57.44
68746;SHT31;66104;45.456;11.064;2023-04-03T07:52:08;14.27;57.37
68746;SHT31;66104;45.456;11.064;2023-04-03T07:54:45;14.23;57.68
68746;SHT31;66104;45.456;11.064;2023-04-03T07:57:22;14.18;57.65
68746;SHT31;66104;45.456;11.064;2023-04-03T07:59:58;14.18;57.59
68746;SHT31;66104;45.456;11.064;2023-04-03T08:02:40;14.17;57.23
68746;SHT31;66104;45.456;11.064;2023-04-03T08:05:19;14.15;57.53
68746;SHT31;66104;45.456;11.064;2023-04-03T08:07:56;14.16;57.01
68746;SHT31;66104;45.456;11.064;2023-04-03T08:10:33;14.18;57.18
68746;SHT31;66104;45.456;11.064;2023-04-03T08:13:09;14.29;57.11
68746;SHT31;66104;45.456;11.064;2023-04-03T08:15:46;14.34;56.30
68746;SHT31;66104;45.456;11.064;2023-04-03T08:18:22;14.40;56.69
68746;SHT31;66104;45.456;11.064;2023-04-03T08:21:00;14.53;56.66
68746;SHT31;66104;45.456;11.064;2023-04-03T08:23:40;14.65;56.74
68746;SHT31;66104;45.456;11.064;2023-04-03T08:26:20;14.74;56.10
68746;SHT31;66104;45.456;11.064;2023-04-03T08:28:57;14.71;55.81
68746;SHT31;66104;45.456;11.064;2023-04-03T08:31:34;14.74;55.08
68746;SHT31;66104;45.456;11.064;2023-04-03T08:34:10;14.72;55.19
68746;SHT31;66104;45.456;11.064;2023-04-03T08:36:47;14.75;55.71
68746;SHT31;66104;45.456;11.064;2023-04-03T08:39:23;14.72;54.61
68746;SHT31;66104;45.456;11.064;2023-04-03T08:42:01;14.70;55.08
68746;SHT31;66104;45.456;11.064;2023-04-03T08:44:52;14.76;55.00
68746;SHT31;66104;45.456;11.064;2023-04-03T08:47:40;14.81;54.49
68746;SHT31;66104;45.456;11.064;2023-04-03T08:50:24;14.77;54.59
68746;SHT31;66104;45.456;11.064;2023-04-03T08:53:05;14.74;54.29
68746;SHT31;66104;45.456;11.064;2023-04-03T08:55:45;14.68;53.66
68746;SHT31;66104;45.456;11.064;2023-04-03T08:58:22;14.60;54.02
68746;SHT31;66104;45.456;11.064;2023-04-03T09:01:03;14.65;54.31
68746;SHT31;66104;45.456;11.064;2023-04-03T09:03:45;14.74;54.03
68746;SHT31;66104;45.456;11.064;2023-04-03T09:06:22;14.82;54.12
68746;SHT31;66104;45.456;11.064;2023-04-03T09:09:10;14.97;53.88
68746;SHT31;66104;45.456;11.064;2023-04-03T09:11:58;14.99;52.54
68746;SHT31;66104;45.456;11.064;2023-04-03T09:14:49;14.98;52.63
68746;SHT31;66104;45.456;11.064;2023-04-03T09:17:46;14.90;52.11
68746;SHT31;66104;45.456;11.064;2023-04-03T09:20:39;14.83;52.47
68746;SHT31;66104;45.456;11.064;2023-04-03T09:23:26;14.85;53.33
68746;SHT31;66104;45.456;11.064;2023-04-03T09:26:13;14.94;52.71
68746;SHT31;66104;45.456;11.064;2023-04-03T09:28:57;14.99;53.07
68746;SHT31;66104;45.456;11.064;2023-04-03T09:31:39;14.95;52.83
68746;SHT31;66104;45.456;11.064;2023-04-03T09:34:20;15.05;53.20
68746;SHT31;66104;45.456;11.064;2023-04-03T09:37:02;15.22;53.36
68746;SHT31;66104;45.456;11.064;2023-04-03T09:39:50;15.23;51.70
68746;SHT31;66104;45.456;11.064;2023-04-03T09:42:27;15.09;51.09
68746;SHT31;66104;45.456;11.064;2023-04-03T09:45:24;14.95;52.00
68746;SHT31;66104;45.456;11.064;2023-04-03T09:48:06;14.97;52.14
68746;SHT31;66104;45.456;11.064;2023-04-03T09:50:58;14.99;51.84
68746;SHT31;66104;45.456;11.064;2023-04-03T09:53:36;15.11;51.64
68746;SHT31;66104;45.456;11.064;2023-04-03T09:56:20;15.29;51.38
68746;SHT31;66104;45.456;11.064;2023-04-03T09:59:08;15.52;50.54
68746;SHT31;66104;45.456;11.064;2023-04-03T10:01:58;15.72;49.14
68746;SHT31;66104;45.456;11.064;2023-04-03T10:04:52;15.85;48.30
68746;SHT31;66104;45.456;11.064;2023-04-03T10:07:37;15.93;48.44
68746;SHT31;66104;45.456;11.064;2023-04-03T10:10:29;16.06;47.80
68746;SHT31;66104;45.456;11.064;2023-04-03T10:13:07;16.01;47.55
68746;SHT31;66104;45.456;11.064;2023-04-03T10:15:51;15.94;48.35
68746;SHT31;66104;45.456;11.064;2023-04-03T10:18:37;16.07;48.70
68746;SHT31;66104;45.456;11.064;2023-04-03T10:21:24;16.10;48.07
68746;SHT31;66104;45.456;11.064;2023-04-03T10:24:13;16.01;47.02
68746;SHT31;66104;45.456;11.064;2023-04-03T10:26:56;15.70;47.54
68746;SHT31;66104;45.456;11.064;2023-04-03T10:29:42;15.60;47.55
68746;SHT31;66104;45.456;11.064;2023-04-03T10:32:35;15.57;48.09
68746;SHT31;66104;45.456;11.064;2023-04-03T10:35:33;15.56;47.88
68746;SHT31;66104;45.456;11.064;2023-04-03T10:38:24;15.41;48.15
68746;SHT31;66104;45.456;11.064;2023-04-03T10:41:15;15.33;47.99
68746;SHT31;66104;45.456;11.064;2023-04-03T10:44:02;15.25;48.28
68746;SHT31;66104;45.456;11.064;2023-04-03T10:46:52;15.27;48.25
68746;SHT31;66104;45.456;11.064;2023-04-03T10:49:40;15.30;48.31
68746;SHT31;66104;45.456;11.064;2023-04-03T10:52:29;15.29;47.89
68746;SHT31;66104;45.456;11.064;2023-04-03T10:55:21;15.19;48.34
68746;SHT31;66104;45.456;11.064;2023-04-03T10:58:09;15.15;48.83
68746;SHT31;66104;45.456;11.064;2023-04-03T11:00:52;15.11;48.21
68746;SHT31;66104;45.456;11.064;2023-04-03T11:03:38;15.02;48.63
68746;SHT31;66104;45.456;11.064;2023-04-03T11:06:20;15.02;48.95
68746;SHT31;66104;45.456;11.064;2023-04-03T11:09:03;15.03;48.43
68746;SHT31;66104;45.456;11.064;2023-04-03T11:11:51;15.07;48.84
68746;SHT31;66104;45.456;11.064;2023-04-03T11:14:33;15.11;48.90
68746;SHT31;66104;45.456;11.064;2023-04-03T11:17:15;15.20;48.73
68746;SHT31;66104;45.456;11.064;2023-04-03T11:20:03;15.28;48.28
68746;SHT31;66104;45.456;11.064;2023-04-03T11:22:50;15.34;47.80
68746;SHT31;66104;45.456;11.064;2023-04-03T11:25:34;15.40;47.38
68746;SHT31;66104;45.456;11.064;2023-04-03T11:28:15;15.51;47.20
68746;SHT31;66104;45.456;11.064;2023-04-03T11:30:52;15.60;47.47
68746;SHT31;66104;45.456;11.064;2023-04-03T11:33:49;15.68;47.18
68746;SHT31;66104;45.456;11.064;2023-04-03T11:36:34;15.72;47.02
68746;SHT31;66104;45.456;11.064;2023-04-03T11:39:20;15.72;46.55
68746;SHT31;66104;45.456;11.064;2023-04-03T11:42:15;15.75;46.39
68746;SHT31;66104;45.456;11.064;2023-04-03T11:45:17;15.88;46.58
68746;SHT31;66104;45.456;11.064;2023-04-03T11:48:06;16.00;46.08
68746;SHT31;66104;45.456;11.064;2023-04-03T11:51:41;16.07;45.93
68746;SHT31;66104;45.456;11.064;2023-04-03T11:54:42;16.15;45.94
68746;SHT31;66104;45.456;11.064;2023-04-03T12:04:17;16.17;45.54
68746;SHT31;66104;45.456;11.064;2023-04-03T12:07:12;16.13;45.36
68746;SHT31;66104;45.456;11.064;2023-04-03T12:09:56;16.05;45.52
68746;SHT31;66104;45.456;11.064;2023-04-03T12:12:35;16.12;45.59
68746;SHT31;66104;45.456;11.064;2023-04-03T12:15:21;16.22;45.54
68746;SHT31;66104;45.456;11.064;2023-04-03T12:24:48;16.11;45.04
68746;SHT31;66104;45.456;11.064;2023-04-03T12:27:25;16.12;45.10
68746;SHT31;66104;45.456;11.064;2023-04-03T12:30:18;16.11;45.17
68746;SHT31;66104;45.456;11.064;2023-04-03T12:36:06;16.05;45.13
68746;SHT31;66104;45.456;11.064;2023-04-03T12:39:06;15.96;45.07
68746;SHT31;66104;45.456;11.064;2023-04-03T12:41:58;15.95;45.48
68746;SHT31;66104;45.456;11.064;2023-04-03T12:44:56;15.94;45.47
68746;SHT31;66104;45.456;11.064;2023-04-03T12:47:48;15.91;45.28
68746;SHT31;66104;45.456;11.064;2023-04-03T12:50:27;15.86;45.10
68746;SHT31;66104;45.456;11.064;2023-04-03T12:53:06;15.81;45.24
68746;SHT31;66104;45.456;11.064;2023-04-03T12:55:48;15.71;45.92
68746;SHT31;66104;45.456;11.064;2023-04-03T12:58:49;15.66;45.92
68746;SHT31;66104;45.456;11.064;2023-04-03T13:01:26;15.65;45.48
68746;SHT31;66104;45.456;11.064;2023-04-03T13:04:03;15.60;45.63
68746;SHT31;66104;45.456;11.064;2023-04-03T13:06:42;15.56;45.71
68746;SHT31;66104;45.456;11.064;2023-04-03T13:09:20;15.59;46.08
68746;SHT31;66104;45.456;11.064;2023-04-03T13:11:59;15.57;45.72
68746;SHT31;66104;45.456;11.064;2023-04-03T13:14:52;15.54;46.03
68746;SHT31;66104;45.456;11.064;2023-04-03T13:17:32;15.56;46.10
68746;SHT31;66104;45.456;11.064;2023-04-03T13:20:17;15.57;46.25
68746;SHT31;66104;45.456;11.064;2023-04-03T13:22:59;15.61;46.49
68746;SHT31;66104;45.456;11.064;2023-04-03T13:25:40;15.65;46.05
68746;SHT31;66104;45.456;11.064;2023-04-03T13:28:19;15.69;46.21
68746;SHT31;66104;45.456;11.064;2023-04-03T13:31:00;15.74;46.19
68746;SHT31;66104;45.456;11.064;2023-04-03T13:33:54;15.75;45.96
68746;SHT31;66104;45.456;11.064;2023-04-03T13:36:37;15.73;45.85
68746;SHT31;66104;45.456;11.064;2023-04-03T13:39:26;15.69;45.52
68746;SHT31;66104;45.456;11.064;2023-04-03T13:42:14;15.62;45.85
68746;SHT31;66104;45.456;11.064;2023-04-03T13:48:14;15.59;46.23
68746;SHT31;66104;45.456;11.064;2023-04-03T13:50:54;15.57;46.04
68746;SHT31;66104;45.456;11.064;2023-04-03T13:53:40;15.53;46.23
68746;SHT31;66104;45.456;11.064;2023-04-03T13:56:21;15.50;46.11
68746;SHT31;66104;45.456;11.064;2023-04-03T13:59:05;15.43;46.21
68746;SHT31;66104;45.456;11.064;2023-04-03T14:02:11;15.39;46.74
68746;SHT31;66104;45.456;11.064;2023-04-03T14:04:53;15.36;46.55
68746;SHT31;66104;45.456;11.064;2023-04-03T14:07:32;15.30;46.25
68746;SHT31;66104;45.456;11.064;2023-04-03T14:10:12;15.26;46.50
68746;SHT31;66104;45.456;11.064;2023-04-03T14:12:50;15.24;46.82
68746;SHT31;66104;45.456;11.064;2023-04-03T14:15:28;15.22;46.88
68746;SHT31;66104;45.456;11.064;2023-04-03T14:18:06;15.19;47.16
68746;SHT31;66104;45.456;11.064;2023-04-03T14:20:45;15.17;46.88
68746;SHT31;66104;45.456;11.064;2023-04-03T14:23:22;15.13;46.76
68746;SHT31;66104;45.456;11.064;2023-04-03T14:25:59;15.13;46.57
68746;SHT31;66104;45.456;11.064;2023-04-03T14:28:36;15.11;46.51
68746;SHT31;66104;45.456;11.064;2023-04-03T14:31:13;15.15;47.21
68746;SHT31;66104;45.456;11.064;2023-04-03T14:33:50;15.10;47.11
68746;SHT31;66104;45.456;11.064;2023-04-03T14:36:27;15.06;47.30
68746;SHT31;66104;45.456;11.064;2023-04-03T14:39:04;15.07;46.97
68746;SHT31;66104;45.456;11.064;2023-04-03T14:41:47;15.05;47.29
68746;SHT31;66104;45.456;11.064;2023-04-03T14:44:24;15.07;47.24
68746;SHT31;66104;45.456;11.064;2023-04-03T14:47:00;15.10;47.23
68746;SHT31;66104;45.456;11.064;2023-04-03T14:49:58;15.18;47.71
68746;SHT31;66104;45.456;11.064;2023-04-03T14:52:38;15.25;46.55
68746;SHT31;66104;45.456;11.064;2023-04-03T14:55:16;15.31;46.40
68746;SHT31;66104;45.456;11.064;2023-04-03T14:57:54;15.34;46.92
68746;SHT31;66104;45.456;11.064;2023-04-03T15:00:31;15.36;47.27
68746;SHT31;66104;45.456;11.064;2023-04-03T15:03:11;15.37;46.56
68746;SHT31;66104;45.456;11.064;2023-04-03T15:05:50;15.38;46.72
68746;SHT31;66104;45.456;11.064;2023-04-03T15:08:28;15.40;46.51
68746;SHT31;66104;45.456;11.064;2023-04-03T15:11:05;15.39;46.49
68746;SHT31;66104;45.456;11.064;2023-04-03T15:13:42;15.34;46.20
68746;SHT31;66104;45.456;11.064;2023-04-03T15:16:19;15.34;46.78
68746;SHT31;66104;45.456;11.064;2023-04-03T15:18:56;15.33;46.60
68746;SHT31;66104;45.456;11.064;2023-04-03T15:21:33;15.35;46.25
68746;SHT31;66104;45.456;11.064;2023-04-03T15:24:09;15.36;45.48
68746;SHT31;66104;45.456;11.064;2023-04-03T15:26:45;15.38;45.77
68746;SHT31;66104;45.456;11.064;2023-04-03T23:16:36;11.18;47.67
68746;SHT31;66104;45.456;11.064;2023-04-03T23:19:14;11.10;47.77
68746;SHT31;66104;45.456;11.064;2023-04-03T23:21:50;11.04;47.95
68746;SHT31;66104;45.456;11.064;2023-04-03T23:24:27;11.01;47.86
68746;SHT31;66104;45.456;11.064;2023-04-03T23:27:03;10.96;48.19
68746;SHT31;66104;45.456;11.064;2023-04-03T23:29:39;10.91;48.43
68746;SHT31;66104;45.456;11.064;2023-04-03T23:32:15;10.87;48.59
68746;SHT31;66104;45.456;11.064;2023-04-03T23:34:52;10.84;48.77
68746;SHT31;66104;45.456;11.064;2023-04-03T23:37:29;10.80;48.94
68746;SHT31;66104;45.456;11.064;2023-04-03T23:40:08;10.76;49.18
68746;SHT31;66104;45.456;11.064;2023-04-03T23:42:48;10.75;49.34
68746;SHT31;66104;45.456;11.064;2023-04-03T23:45:24;10.72;49.14
68746;SHT31;66104;45.456;11.064;2023-04-03T23:48:02;10.70;49.30
68746;SHT31;66104;45.456;11.064;2023-04-03T23:50:38;10.68;49.19
68746;SHT31;66104;45.456;11.064;2023-04-03T23:53:15;10.70;49.00
68746;SHT31;66104;45.456;11.064;2023-04-03T23:55:51;10.71;49.00
68746;SHT31;66104;45.456;11.064;2023-04-03T23:58:27;10.74;48.92
